Time;durP1;ratioP1;P1;durP2;ratioP2;P2;SDS_P1;SDS_P2;PMS_P1;PMS_P2;Temp;Humidity;BMP_temperature;BMP_pressure;BME280_temperature;BME280_humidity;BME280_pressure;Samples;Min_cycle;Max_cycle;Signal;HPM_P1;HPM_P2
2021/12/22 00:00:25;;;;;;;22.15;15.30;;;-3.50;99.90;;;;;;4972607;28;20047;-72
2021/12/22 00:02:50;;;;;;;23.30;15.50;;;-3.50;99.90;;;;;;4987907;28;20034;-72
2021/12/22 00:05:24;;;;;;;23.13;15.43;;;-3.60;99.90;;;;;;4971849;28;20053;-72
2021/12/22 00:07:50;;;;;;;25.30;15.97;;;-3.50;99.90;;;;;;5008585;28;20053;-72
2021/12/22 00:10:18;;;;;;;23.75;16.70;;;-3.60;99.90;;;;;;4990006;28;20041;-72
2021/12/22 00:12:44;;;;;;;22.10;15.98;;;-3.50;99.90;;;;;;4986653;28;20073;-71
2021/12/22 00:15:10;;;;;;;22.88;14.52;;;-3.60;99.90;;;;;;4974778;28;20642;-71
2021/12/22 00:17:35;;;;;;;27.13;16.33;;;-3.60;99.90;;;;;;4987429;28;20549;-71
2021/12/22 00:20:02;;;;;;;23.92;16.02;;;-3.60;99.90;;;;;;4985254;28;20074;-71
2021/12/22 00:22:28;;;;;;;23.20;15.05;;;-3.60;99.90;;;;;;4987359;28;20464;-71
2021/12/22 00:24:54;;;;;;;20.00;13.77;;;-3.60;99.90;;;;;;4990162;28;20126;-71
2021/12/22 00:27:19;;;;;;;20.70;13.82;;;-3.60;99.90;;;;;;4985521;28;20492;-71
2021/12/22 00:29:48;;;;;;;22.25;15.18;;;-3.70;99.90;;;;;;4979297;28;20046;-71
2021/12/22 00:32:16;;;;;;;22.85;14.60;;;-3.70;99.90;;;;;;4992987;28;20320;-71
2021/12/22 00:34:47;;;;;;;23.00;14.75;;;-3.70;99.90;;;;;;4986737;28;20492;-71
2021/12/22 00:37:15;;;;;;;20.80;14.35;;;-3.70;99.90;;;;;;4965162;28;20074;-71
2021/12/22 00:39:41;;;;;;;23.85;15.15;;;-3.80;99.90;;;;;;4984529;28;20030;-71
2021/12/22 00:42:07;;;;;;;25.25;14.88;;;-3.80;99.90;;;;;;4976903;28;20137;-71
2021/12/22 00:44:33;;;;;;;21.30;14.25;;;-3.80;99.90;;;;;;4971171;28;20104;-71
2021/12/22 00:46:58;;;;;;;23.88;14.65;;;-3.80;99.90;;;;;;4991425;28;20060;-71
2021/12/22 00:49:24;;;;;;;22.83;15.05;;;-3.80;99.90;;;;;;4988826;28;20042;-71
2021/12/22 00:51:50;;;;;;;22.80;15.82;;;-3.80;99.90;;;;;;4987730;28;20444;-71
2021/12/22 00:54:15;;;;;;;22.40;14.65;;;-3.90;99.90;;;;;;4986720;28;20397;-71
2021/12/22 00:56:41;;;;;;;21.63;15.32;;;-3.90;99.90;;;;;;4991202;28;20559;-71
2021/12/22 00:59:07;;;;;;;21.23;15.00;;;-3.90;99.90;;;;;;4971344;28;20366;-71
2021/12/22 01:01:32;;;;;;;24.45;14.60;;;-3.90;99.90;;;;;;4986115;28;20552;-71
2021/12/22 01:03:58;;;;;;;23.85;15.05;;;-3.90;99.90;;;;;;4991594;28;20038;-71
2021/12/22 01:06:24;;;;;;;22.60;14.40;;;-3.90;99.90;;;;;;4987828;28;20084;-71
2021/12/22 01:08:50;;;;;;;21.67;14.93;;;-3.90;99.90;;;;;;4989198;28;20026;-71
2021/12/22 01:11:15;;;;;;;20.55;14.63;;;-3.90;99.90;;;;;;4996814;28;20499;-71
2021/12/22 01:13:41;;;;;;;22.60;15.13;;;-3.90;99.90;;;;;;4995778;28;20144;-71
2021/12/22 01:16:07;;;;;;;25.30;15.70;;;-4.00;99.90;;;;;;4991079;28;20041;-71
2021/12/22 01:18:35;;;;;;;21.95;14.88;;;-3.90;99.90;;;;;;4994279;28;20065;-71
2021/12/22 01:21:21;;;;;;;23.65;15.35;;;-4.00;99.90;;;;;;4990579;28;20625;-71
2021/12/22 01:24:02;;;;;;;23.45;14.93;;;-3.90;99.90;;;;;;4994890;28;20048;-71
2021/12/22 01:26:31;;;;;;;24.15;15.00;;;-3.90;99.90;;;;;;4989195;28;20433;-71
2021/12/22 01:28:57;;;;;;;23.33;14.52;;;-4.00;99.90;;;;;;4973487;28;20442;-71
2021/12/22 01:31:23;;;;;;;20.88;15.70;;;-4.00;99.90;;;;;;4992924;28;20045;-71
2021/12/22 01:33:49;;;;;;;26.92;15.70;;;-3.90;99.90;;;;;;4990782;28;20042;-71
2021/12/22 01:36:15;;;;;;;24.17;15.40;;;-4.00;99.90;;;;;;4991199;28;20053;-71
2021/12/22 01:38:40;;;;;;;21.65;15.77;;;-4.00;99.90;;;;;;4992780;28;20482;-71
2021/12/22 01:41:06;;;;;;;25.88;14.25;;;-4.00;99.90;;;;;;4989350;28;20518;-71
2021/12/22 01:43:32;;;;;;;21.45;15.93;;;-4.00;99.90;;;;;;4990441;28;20041;-71
2021/12/22 01:51:50;;;;;;;22.55;14.85;;;-4.00;99.90;;;;;;4988702;28;20072;-71
2021/12/22 01:54:43;;;;;;;24.23;14.88;;;-4.00;99.90;;;;;;4988354;28;20042;-70
2021/12/22 01:57:11;;;;;;;26.25;16.15;;;-4.10;99.90;;;;;;4973236;28;20042;-70
2021/12/22 01:59:39;;;;;;;26.92;16.17;;;-4.10;99.90;;;;;;4990800;28;20092;-70
2021/12/22 02:02:07;;;;;;;22.48;15.88;;;-4.10;99.90;;;;;;4991360;28;20045;-71
2021/12/22 02:04:33;;;;;;;23.95;15.93;;;-4.10;99.90;;;;;;4991819;28;20061;-71
2021/12/22 02:06:59;;;;;;;25.20;16.25;;;-4.10;99.90;;;;;;4989319;28;20117;-70
2021/12/22 02:09:53;;;;;;;21.83;15.15;;;-4.00;99.90;;;;;;4993093;28;20187;-70
2021/12/22 02:12:12;;;;;;;27.40;15.95;;;-4.00;99.90;;;;;;4984480;28;20053;-70
2021/12/22 02:14:40;;;;;;;23.85;16.83;;;-4.00;99.90;;;;;;4988203;28;20074;-70
2021/12/22 02:17:08;;;;;;;27.00;16.20;;;-4.00;99.90;;;;;;4989149;28;20121;-70
2021/12/22 02:19:38;;;;;;;28.35;16.35;;;-4.00;99.90;;;;;;4989726;28;20137;-70
2021/12/22 02:22:09;;;;;;;23.58;16.20;;;-4.00;99.90;;;;;;4986976;28;20486;-70
2021/12/22 02:24:35;;;;;;;25.60;16.85;;;-4.00;99.90;;;;;;4986853;28;20054;-70
2021/12/22 02:27:06;;;;;;;25.08;17.05;;;-3.90;99.90;;;;;;4991751;28;20115;-70
2021/12/22 02:29:37;;;;;;;24.05;16.33;;;-3.90;99.90;;;;;;4975401;28;20042;-70
2021/12/22 02:32:10;;;;;;;23.83;15.27;;;-3.90;99.90;;;;;;4973747;28;20038;-70
2021/12/22 02:34:47;;;;;;;22.98;15.43;;;-3.90;99.90;;;;;;4990305;28;20053;-70
2021/12/22 02:37:17;;;;;;;23.23;15.52;;;-3.90;99.90;;;;;;4966959;28;20054;-70
2021/12/22 02:39:58;;;;;;;21.63;15.07;;;-3.90;99.90;;;;;;4971142;28;20069;-70
2021/12/22 02:42:27;;;;;;;22.98;15.02;;;-4.00;99.90;;;;;;4970909;28;20038;-70
2021/12/22 02:44:53;;;;;;;19.92;15.13;;;-4.00;99.90;;;;;;4954015;28;20058;-70
2021/12/22 02:47:22;;;;;;;27.10;15.55;;;-4.00;99.90;;;;;;4973036;28;20038;-70
2021/12/22 02:49:48;;;;;;;20.90;13.88;;;-4.10;99.90;;;;;;4972754;28;20247;-70
2021/12/22 02:52:15;;;;;;;26.10;15.25;;;-4.10;99.90;;;;;;4969599;28;20038;-70
2021/12/22 02:54:46;;;;;;;22.20;14.60;;;-4.10;99.90;;;;;;4975570;28;20081;-70
2021/12/22 02:57:32;;;;;;;21.42;14.43;;;-4.10;99.90;;;;;;4968485;28;20035;-70
2021/12/22 03:00:29;;;;;;;23.30;15.70;;;-4.10;99.90;;;;;;4966521;28;20049;-70
2021/12/22 03:05:22;;;;;;;22.75;14.65;;;-4.10;99.90;;;;;;4970015;28;20046;-70
2021/12/22 03:07:48;;;;;;;24.58;14.50;;;-4.10;99.90;;;;;;4966883;28;20057;-70
2021/12/22 03:10:17;;;;;;;21.35;14.55;;;-4.10;99.90;;;;;;4951933;28;20051;-70
2021/12/22 03:12:52;;;;;;;23.73;14.15;;;-4.10;99.90;;;;;;4972178;28;20077;-70
2021/12/22 03:15:19;;;;;;;21.15;14.15;;;-4.10;99.90;;;;;;4969083;28;20124;-70
2021/12/22 03:17:48;;;;;;;23.92;14.63;;;-4.10;99.90;;;;;;4968464;28;20085;-70
2021/12/22 03:20:15;;;;;;;25.05;15.48;;;-4.10;99.90;;;;;;4968137;28;20034;-70
2021/12/22 03:22:43;;;;;;;23.52;14.15;;;-4.10;99.90;;;;;;4971880;28;20086;-70
2021/12/22 03:25:15;;;;;;;20.98;14.88;;;-4.10;99.90;;;;;;4951709;28;20121;-70
2021/12/22 03:27:49;;;;;;;19.25;13.68;;;-4.10;99.90;;;;;;4965963;28;20050;-70
2021/12/22 03:30:17;;;;;;;21.50;13.73;;;-4.10;99.90;;;;;;4970544;28;20042;-70
2021/12/22 03:32:43;;;;;;;18.52;13.50;;;-4.10;99.90;;;;;;4969020;28;20337;-70
2021/12/22 03:35:15;;;;;;;19.75;13.65;;;-4.20;99.90;;;;;;4956280;28;20088;-70
2021/12/22 03:37:41;;;;;;;20.70;13.65;;;-4.10;99.90;;;;;;4989122;28;20054;-70
2021/12/22 03:40:07;;;;;;;20.73;13.52;;;-4.20;99.90;;;;;;4990190;28;20378;-70
2021/12/22 03:42:33;;;;;;;21.88;13.27;;;-4.20;99.90;;;;;;4988750;28;20041;-70
2021/12/22 03:44:59;;;;;;;22.27;13.70;;;-4.20;99.90;;;;;;4987938;28;20045;-70
2021/12/22 03:47:26;;;;;;;22.77;14.57;;;-4.20;99.90;;;;;;4991424;28;20049;-70
2021/12/22 03:49:52;;;;;;;21.23;14.57;;;-4.30;99.90;;;;;;4993520;28;20454;-70
2021/12/22 03:52:18;;;;;;;20.42;13.30;;;-4.30;99.90;;;;;;4988697;28;20048;-70
2021/12/22 03:54:43;;;;;;;20.90;13.15;;;-4.30;99.90;;;;;;4978028;28;20050;-70
2021/12/22 03:57:09;;;;;;;20.73;14.68;;;-4.30;99.90;;;;;;4988747;28;20492;-70
2021/12/22 03:59:35;;;;;;;24.63;14.65;;;-4.30;99.90;;;;;;4989163;28;20506;-70
2021/12/22 04:02:01;;;;;;;21.50;14.43;;;-4.30;99.90;;;;;;4973877;28;20042;-70
2021/12/22 04:04:27;;;;;;;18.55;13.35;;;-4.30;99.90;;;;;;4984272;28;20038;-70
2021/12/22 04:06:52;;;;;;;20.88;14.32;;;-4.30;99.90;;;;;;4988284;28;20445;-70
2021/12/22 04:09:26;;;;;;;21.15;14.13;;;-4.30;99.90;;;;;;4988774;28;20508;-70
2021/12/22 04:11:52;;;;;;;22.23;15.30;;;-4.30;99.90;;;;;;4990056;28;20129;-70
2021/12/22 04:14:18;;;;;;;20.05;13.93;;;-4.30;99.90;;;;;;4988489;28;20045;-70
2021/12/22 04:16:44;;;;;;;22.88;14.25;;;-4.30;99.90;;;;;;4986803;28;20053;-70
2021/12/22 04:19:09;;;;;;;20.45;14.13;;;-4.30;99.90;;;;;;4988480;28;20084;-70
2021/12/22 04:21:35;;;;;;;19.75;13.65;;;-4.30;99.90;;;;;;4988928;28;20046;-70
2021/12/22 04:24:02;;;;;;;21.38;14.10;;;-4.30;99.90;;;;;;4966632;28;20049;-70
2021/12/22 04:26:30;;;;;;;21.60;14.48;;;-4.30;99.90;;;;;;4984964;28;20042;-70
2021/12/22 04:28:56;;;;;;;20.55;14.32;;;-4.40;99.90;;;;;;4987897;28;20052;-70
2021/12/22 04:31:22;;;;;;;19.85;14.18;;;-4.30;99.90;;;;;;4971538;28;20041;-70
2021/12/22 04:33:48;;;;;;;19.92;13.52;;;-4.30;99.90;;;;;;4990061;28;20298;-70
2021/12/22 04:36:13;;;;;;;23.20;14.60;;;-4.30;99.90;;;;;;4987470;28;20050;-70
2021/12/22 04:38:39;;;;;;;21.95;14.43;;;-4.30;99.90;;;;;;4989219;28;20050;-69
2021/12/22 04:41:05;;;;;;;23.05;14.70;;;-4.40;99.90;;;;;;4970332;28;20489;-69
2021/12/22 04:43:31;;;;;;;20.77;14.05;;;-4.40;99.90;;;;;;4991132;28;20042;-69
2021/12/22 04:45:57;;;;;;;23.30;14.25;;;-4.40;99.90;;;;;;4990748;28;20287;-69
2021/12/22 04:48:22;;;;;;;26.70;15.65;;;-4.40;99.90;;;;;;4998007;28;20497;-69
2021/12/22 04:50:48;;;;;;;22.98;13.77;;;-4.40;99.90;;;;;;4991608;28;20057;-69
2021/12/22 04:53:20;;;;;;;22.42;14.55;;;-4.30;99.90;;;;;;4990622;28;20523;-69
2021/12/22 04:55:46;;;;;;;22.85;15.27;;;-4.30;99.90;;;;;;4992368;28;20038;-69
2021/12/22 04:58:12;;;;;;;23.73;14.98;;;-4.30;99.90;;;;;;4993186;28;20095;-69
2021/12/22 05:00:39;;;;;;;22.35;15.20;;;-4.40;99.90;;;;;;4989371;28;20046;-69
2021/12/22 05:03:05;;;;;;;20.17;13.93;;;-4.40;99.90;;;;;;4992311;28;20080;-70
2021/12/22 05:05:31;;;;;;;24.10;16.85;;;-4.40;99.90;;;;;;4993252;28;20034;-70
2021/12/22 05:07:57;;;;;;;20.73;14.60;;;-4.40;99.90;;;;;;4993278;28;20050;-70
2021/12/22 05:10:24;;;;;;;23.58;14.70;;;-4.40;99.90;;;;;;4992527;28;20137;-70
2021/12/22 05:12:51;;;;;;;20.45;14.40;;;-4.40;99.90;;;;;;4973604;28;20076;-70
2021/12/22 05:15:19;;;;;;;22.83;14.38;;;-4.40;99.90;;;;;;4992243;28;20455;-70
2021/12/22 05:18:11;;;;;;;23.08;15.38;;;-4.40;99.90;;;;;;4992713;28;20049;-70
2021/12/22 05:20:34;;;;;;;25.50;14.60;;;-4.40;99.90;;;;;;4993285;28;20116;-70
2021/12/22 05:23:00;;;;;;;22.20;15.25;;;-4.40;99.90;;;;;;4991728;28;20585;-70
2021/12/22 05:25:26;;;;;;;21.52;14.02;;;-4.40;99.90;;;;;;4992790;28;20038;-70
2021/12/22 05:27:51;;;;;;;23.40;15.27;;;-4.40;99.90;;;;;;4992208;28;20057;-70
2021/12/22 05:30:17;;;;;;;22.27;14.05;;;-4.50;99.90;;;;;;4991433;28;20037;-70
2021/12/22 05:32:43;;;;;;;21.25;15.02;;;-4.50;99.90;;;;;;4984902;28;20049;-70
2021/12/22 05:35:11;;;;;;;21.27;14.88;;;-4.50;99.90;;;;;;4990013;28;20061;-70
2021/12/22 05:37:37;;;;;;;24.15;16.27;;;-4.50;99.90;;;;;;4987462;28;20128;-70
2021/12/22 05:40:05;;;;;;;22.02;15.70;;;-4.40;99.90;;;;;;5011670;28;20060;-70
2021/12/22 05:42:31;;;;;;;22.40;15.30;;;-4.40;99.90;;;;;;4994204;28;20448;-70
2021/12/22 05:44:57;;;;;;;22.67;14.15;;;-4.40;99.90;;;;;;4989288;28;20034;-70
2021/12/22 05:47:22;;;;;;;22.20;13.63;;;-4.40;99.90;;;;;;4994888;28;20457;-70
2021/12/22 05:49:49;;;;;;;22.00;14.20;;;-4.50;99.90;;;;;;4990925;28;20045;-70
2021/12/22 05:52:15;;;;;;;22.58;14.02;;;-4.50;99.90;;;;;;4991573;28;20547;-70
2021/12/22 05:54:41;;;;;;;25.48;16.00;;;-4.50;99.90;;;;;;4976016;28;20176;-70
2021/12/22 05:57:06;;;;;;;24.20;15.30;;;-4.50;99.90;;;;;;4994273;28;20521;-70
2021/12/22 05:59:32;;;;;;;25.85;15.15;;;-4.40;99.90;;;;;;4991786;28;20379;-70
2021/12/22 06:01:58;;;;;;;23.60;14.38;;;-4.50;99.90;;;;;;4990646;28;20044;-70
2021/12/22 06:04:24;;;;;;;26.17;15.90;;;-4.40;99.90;;;;;;4992900;28;20125;-69
2021/12/22 06:06:49;;;;;;;23.83;15.60;;;-4.50;99.90;;;;;;4991872;28;20564;-69
2021/12/22 06:09:15;;;;;;;22.23;14.98;;;-4.50;99.90;;;;;;4990248;28;20030;-69
2021/12/22 06:11:41;;;;;;;20.58;14.38;;;-4.40;99.90;;;;;;4991364;28;20053;-69
2021/12/22 06:14:06;;;;;;;22.92;15.75;;;-4.40;99.90;;;;;;4993505;28;20059;-69
2021/12/22 06:16:32;;;;;;;25.02;16.55;;;-4.50;99.90;;;;;;4974631;28;20030;-69
2021/12/22 06:19:02;;;;;;;24.67;15.85;;;-4.40;99.90;;;;;;4994736;28;20103;-69
2021/12/22 06:21:30;;;;;;;22.33;14.25;;;-4.40;99.90;;;;;;4990586;28;20050;-69
2021/12/22 06:23:55;;;;;;;23.10;14.55;;;-4.50;99.90;;;;;;4992822;28;20358;-69
2021/12/22 06:26:21;;;;;;;23.58;14.75;;;-4.50;99.90;;;;;;4971919;28;20045;-69
2021/12/22 06:28:47;;;;;;;24.20;15.00;;;-4.50;99.90;;;;;;4994002;28;20038;-69
2021/12/22 06:31:13;;;;;;;22.80;14.32;;;-4.50;99.90;;;;;;4974535;28;20115;-70
2021/12/22 06:33:39;;;;;;;23.55;15.05;;;-4.50;99.90;;;;;;4991076;28;20041;-69
2021/12/22 06:36:05;;;;;;;24.45;15.40;;;-4.50;99.90;;;;;;4973975;28;20404;-69
2021/12/22 06:38:31;;;;;;;21.17;15.15;;;-4.50;99.90;;;;;;4994120;28;20044;-69
2021/12/22 06:40:57;;;;;;;24.38;16.70;;;-4.50;99.90;;;;;;4975492;28;20498;-69
2021/12/22 06:43:24;;;;;;;23.63;15.63;;;-4.50;99.90;;;;;;4974315;28;20049;-69
2021/12/22 06:45:49;;;;;;;21.92;14.75;;;-4.50;99.90;;;;;;4990355;28;20041;-69
2021/12/22 06:48:15;;;;;;;24.33;14.75;;;-4.40;99.90;;;;;;4975536;28;20076;-69
2021/12/22 06:50:41;;;;;;;25.23;15.73;;;-4.50;99.90;;;;;;4990264;28;20450;-69
2021/12/22 06:53:06;;;;;;;23.67;14.73;;;-4.40;99.90;;;;;;4991215;28;20167;-69
2021/12/22 06:55:32;;;;;;;21.13;13.95;;;-4.50;99.90;;;;;;4990927;28;20045;-69
2021/12/22 06:57:59;;;;;;;24.40;14.80;;;-4.50;99.90;;;;;;4989952;28;20090;-69
2021/12/22 07:00:25;;;;;;;24.75;15.40;;;-4.50;99.90;;;;;;4992866;28;20719;-69
2021/12/22 07:02:52;;;;;;;22.45;15.77;;;-4.50;99.90;;;;;;4984605;28;20125;-69
2021/12/22 07:05:20;;;;;;;23.75;14.13;;;-4.50;99.90;;;;;;4988065;28;20042;-69
2021/12/22 07:07:45;;;;;;;21.48;14.85;;;-4.50;99.90;;;;;;4988412;28;20049;-69
2021/12/22 07:10:12;;;;;;;25.27;14.55;;;-4.50;99.90;;;;;;4991247;28;20046;-69
2021/12/22 07:12:42;;;;;;;23.95;14.80;;;-4.50;99.90;;;;;;4988698;28;20060;-69
2021/12/22 07:15:10;;;;;;;25.80;15.75;;;-4.50;99.90;;;;;;4990214;28;20069;-69
2021/12/22 07:17:40;;;;;;;24.02;15.07;;;-4.50;99.90;;;;;;4991656;28;20046;-69
2021/12/22 07:20:07;;;;;;;21.42;15.13;;;-4.50;99.90;;;;;;4993375;28;20040;-69
2021/12/22 07:22:33;;;;;;;25.25;15.50;;;-4.50;99.90;;;;;;4985266;28;20119;-69
2021/12/22 07:24:59;;;;;;;24.73;15.77;;;-4.50;99.90;;;;;;4992676;28;20425;-69
2021/12/22 07:27:25;;;;;;;25.58;15.20;;;-4.50;99.90;;;;;;4975024;28;20069;-69
2021/12/22 07:29:50;;;;;;;24.42;15.50;;;-4.50;99.90;;;;;;4988575;28;20041;-69
2021/12/22 07:32:16;;;;;;;27.80;16.02;;;-4.40;99.90;;;;;;4969005;28;20041;-69
2021/12/22 07:35:06;;;;;;;26.40;15.68;;;-4.40;99.90;;;;;;4993006;28;20049;-69
2021/12/22 07:37:43;;;;;;;24.80;15.65;;;-4.40;99.90;;;;;;4971606;28;20104;-69
2021/12/22 07:40:14;;;;;;;26.38;15.35;;;-4.50;99.90;;;;;;4993762;28;20052;-69
2021/12/22 07:42:40;;;;;;;21.27;15.10;;;-4.40;99.90;;;;;;4988618;28;20564;-69
2021/12/22 07:45:06;;;;;;;23.27;14.23;;;-4.40;99.90;;;;;;4978286;28;20224;-69
2021/12/22 07:47:32;;;;;;;23.58;14.20;;;-4.40;99.90;;;;;;4990962;28;20053;-69
2021/12/22 07:49:58;;;;;;;25.67;15.40;;;-4.40;99.90;;;;;;4989355;28;20132;-69
2021/12/22 07:52:26;;;;;;;24.02;15.02;;;-4.40;99.90;;;;;;4972129;28;20421;-69
2021/12/22 07:54:52;;;;;;;23.08;15.20;;;-4.40;99.90;;;;;;4989728;28;20094;-69
2021/12/22 07:57:18;;;;;;;21.30;14.75;;;-4.40;99.90;;;;;;4990252;28;20496;-69
2021/12/22 07:59:44;;;;;;;24.38;15.48;;;-4.30;99.90;;;;;;4992085;28;20034;-69
2021/12/22 08:02:10;;;;;;;23.00;15.48;;;-4.30;99.90;;;;;;4990835;28;20527;-69
2021/12/22 08:04:36;;;;;;;25.35;16.05;;;-4.30;99.90;;;;;;4990707;28;20536;-69
2021/12/22 08:07:02;;;;;;;25.30;15.52;;;-4.20;99.90;;;;;;4985214;28;20054;-69
2021/12/22 08:09:28;;;;;;;26.25;14.95;;;-4.10;99.90;;;;;;4989161;28;20056;-69
2021/12/22 08:11:55;;;;;;;22.17;14.50;;;-4.10;99.90;;;;;;4987939;28;20053;-69
2021/12/22 08:14:23;;;;;;;24.30;14.60;;;-4.10;99.90;;;;;;4989944;28;20532;-69
2021/12/22 08:16:50;;;;;;;23.35;13.98;;;-4.00;99.90;;;;;;4973361;28;20084;-69
2021/12/22 08:19:16;;;;;;;25.13;14.70;;;-4.00;99.90;;;;;;4988055;28;20038;-69
2021/12/22 08:21:44;;;;;;;25.65;15.65;;;-4.00;99.90;;;;;;4991246;28;20049;-69
2021/12/22 08:24:10;;;;;;;21.27;13.95;;;-3.90;99.90;;;;;;4993598;28;20517;-70
2021/12/22 08:26:35;;;;;;;26.73;15.20;;;-3.80;99.90;;;;;;4994593;28;20132;-69
2021/12/22 08:29:01;;;;;;;22.20;14.75;;;-3.80;99.90;;;;;;4993771;28;20216;-69
2021/12/22 08:31:27;;;;;;;24.83;15.38;;;-3.80;99.90;;;;;;4990269;28;20073;-69
2021/12/22 08:33:54;;;;;;;21.70;14.25;;;-3.70;99.90;;;;;;4975646;28;20038;-69
2021/12/22 08:39:07;;;;;;;22.63;15.65;;;-3.40;99.90;;;;;;4992647;28;20050;-70
2021/12/22 08:41:36;;;;;;;24.52;15.02;;;-3.50;99.90;;;;;;4991478;28;20065;-70
2021/12/22 08:44:09;;;;;;;23.10;14.50;;;-3.40;99.90;;;;;;4995890;28;20115;-70
2021/12/22 08:46:38;;;;;;;25.33;15.07;;;-3.30;99.90;;;;;;4991899;28;20054;-70
2021/12/22 08:49:05;;;;;;;24.60;14.02;;;-3.20;99.90;;;;;;4996000;28;20533;-70
2021/12/22 08:51:32;;;;;;;21.95;14.00;;;-3.10;99.90;;;;;;4986767;28;20050;-70
2021/12/22 08:54:00;;;;;;;24.77;14.43;;;-3.10;99.90;;;;;;4991487;28;20116;-70
2021/12/22 08:56:26;;;;;;;21.42;14.50;;;-3.00;99.90;;;;;;4986928;28;20054;-70
2021/12/22 08:58:54;;;;;;;24.98;14.68;;;-3.00;99.90;;;;;;4995590;28;20537;-70
2021/12/22 09:01:20;;;;;;;25.17;16.00;;;-2.90;99.90;;;;;;4972432;28;20049;-70
2021/12/22 09:03:46;;;;;;;25.40;15.02;;;-2.80;99.90;;;;;;4995374;28;20112;-70
2021/12/22 09:06:13;;;;;;;22.15;14.95;;;-2.80;99.90;;;;;;4991102;28;20069;-70
2021/12/22 09:08:40;;;;;;;22.48;14.00;;;-2.80;99.90;;;;;;4977383;28;20046;-70
2021/12/22 09:11:05;;;;;;;24.38;14.02;;;-2.70;99.90;;;;;;4992992;28;20569;-70
2021/12/22 09:13:31;;;;;;;20.17;14.43;;;-2.70;99.90;;;;;;4994216;28;20049;-70
2021/12/22 09:15:57;;;;;;;22.55;14.57;;;-2.60;99.90;;;;;;4993733;28;20104;-70
2021/12/22 09:18:23;;;;;;;21.90;14.27;;;-2.50;99.90;;;;;;4996313;28;20056;-70
2021/12/22 09:20:49;;;;;;;20.55;13.20;;;-2.50;99.90;;;;;;4994532;28;20046;-70
2021/12/22 09:23:14;;;;;;;23.75;14.15;;;-2.50;99.90;;;;;;4987090;28;20065;-68
2021/12/22 09:25:41;;;;;;;23.92;14.85;;;-2.50;99.90;;;;;;4994511;28;20398;-69
2021/12/22 09:28:09;;;;;;;25.92;16.83;;;-2.40;99.90;;;;;;4986464;28;20437;-70
2021/12/22 09:30:36;;;;;;;22.20;14.40;;;-2.40;99.90;;;;;;4994548;28;20053;-69
2021/12/22 09:33:07;;;;;;;19.67;13.30;;;-2.30;99.90;;;;;;4991166;28;20050;-69
2021/12/22 09:35:34;;;;;;;20.63;13.40;;;-2.30;99.90;;;;;;4993152;28;20156;-70
2021/12/22 09:37:59;;;;;;;24.08;15.30;;;-2.30;99.90;;;;;;4992684;28;20117;-69
2021/12/22 09:40:25;;;;;;;21.13;14.30;;;-2.20;99.90;;;;;;4993559;28;20042;-69
2021/12/22 09:42:51;;;;;;;19.95;13.32;;;-2.20;99.90;;;;;;4988043;28;20069;-70
2021/12/22 09:45:19;;;;;;;21.65;14.13;;;-2.10;99.90;;;;;;4994484;28;20129;-70
2021/12/22 09:48:00;;;;;;;20.13;13.98;;;-2.00;99.90;;;;;;4975728;28;20061;-70
2021/12/22 09:50:43;;;;;;;21.75;14.50;;;-1.90;99.90;;;;;;4974860;28;20052;-70
2021/12/22 09:53:09;;;;;;;18.27;12.65;;;-1.90;99.90;;;;;;4991248;28;20107;-70
2021/12/22 09:55:35;;;;;;;21.80;14.02;;;-1.80;99.90;;;;;;4991614;28;20046;-70
2021/12/22 09:58:04;;;;;;;20.10;13.80;;;-1.80;99.90;;;;;;4997798;28;20076;-70
2021/12/22 10:00:33;;;;;;;19.88;12.85;;;-1.80;99.90;;;;;;5008011;28;20473;-70
2021/12/22 10:02:59;;;;;;;22.48;14.60;;;-1.70;99.90;;;;;;4974587;28;20068;-70
2021/12/22 10:05:25;;;;;;;20.85;13.95;;;-1.60;99.90;;;;;;4978964;28;20405;-69
2021/12/22 10:08:07;;;;;;;19.20;13.25;;;-1.60;99.90;;;;;;4974345;28;20121;-70
2021/12/22 10:10:37;;;;;;;25.50;13.82;;;-1.50;99.90;;;;;;4991248;28;20125;-69
2021/12/22 10:13:19;;;;;;;22.38;14.07;;;-1.50;99.90;;;;;;4974918;28;20100;-70
2021/12/22 10:15:46;;;;;;;23.17;14.43;;;-1.40;99.90;;;;;;4990846;28;20042;-70
2021/12/22 10:18:38;;;;;;;20.20;13.43;;;-1.40;99.90;;;;;;4987961;28;20049;-70
2021/12/22 10:21:12;;;;;;;17.58;12.98;;;-1.30;99.90;;;;;;4989092;28;20050;-70
2021/12/22 10:23:42;;;;;;;21.42;13.90;;;-1.30;99.90;;;;;;4973870;28;20050;-71
2021/12/22 10:26:09;;;;;;;19.95;13.43;;;-1.20;99.90;;;;;;4991297;28;20379;-70
2021/12/22 10:29:07;;;;;;;19.98;13.43;;;-1.10;99.90;;;;;;4974623;28;20054;-70
2021/12/22 10:31:34;;;;;;;21.02;13.75;;;-1.00;99.90;;;;;;4975832;28;20140;-70
2021/12/22 10:34:08;;;;;;;19.42;13.57;;;-1.00;99.90;;;;;;4988473;28;20124;-70
2021/12/22 10:36:46;;;;;;;18.07;13.43;;;-1.00;99.90;;;;;;4990059;28;20651;-70
2021/12/22 10:39:38;;;;;;;20.42;13.02;;;-0.90;99.90;;;;;;4990220;28;20056;-70
2021/12/22 10:42:10;;;;;;;20.40;14.10;;;-0.80;99.90;;;;;;4969307;28;20460;-70
2021/12/22 10:44:42;;;;;;;18.25;12.57;;;-0.70;99.90;;;;;;4982588;28;20410;-70
2021/12/22 10:49:14;;;;;;;18.08;12.60;;;-0.70;99.90;;;;;;4984958;28;20081;-70
2021/12/22 10:50:09;;;;;;;17.50;11.95;;;-0.60;99.90;;;;;;4989069;28;20045;-70
2021/12/22 10:52:35;;;;;;;17.50;12.52;;;-0.60;99.90;;;;;;4991883;28;20061;-70
2021/12/22 10:55:09;;;;;;;18.40;12.75;;;-0.60;99.90;;;;;;4989998;28;20259;-70
2021/12/22 10:57:43;;;;;;;21.63;13.32;;;-0.50;99.90;;;;;;4988170;28;20049;-70
2021/12/22 11:00:25;;;;;;;18.52;11.70;;;-0.50;99.90;;;;;;4974712;28;20050;-70
2021/12/22 11:03:06;;;;;;;18.23;11.60;;;-0.40;99.90;;;;;;4977557;28;20042;-70
2021/12/22 11:05:48;;;;;;;15.85;12.52;;;-0.30;99.90;;;;;;4988913;28;20046;-69
2021/12/22 11:08:26;;;;;;;19.13;11.45;;;-0.30;99.90;;;;;;4988143;28;20092;-69
2021/12/22 11:10:53;;;;;;;18.65;11.65;;;-0.20;99.90;;;;;;4988565;28;20098;-70
2021/12/22 11:13:21;;;;;;;20.50;12.02;;;-0.20;99.90;;;;;;4991474;28;20053;-69
2021/12/22 11:15:48;;;;;;;16.65;11.25;;;-0.20;99.90;;;;;;4988111;28;20046;-69
2021/12/22 11:18:28;;;;;;;15.65;11.75;;;-0.10;99.90;;;;;;4989720;28;20529;-71
2021/12/22 11:21:31;;;;;;;16.80;11.82;;;-0.10;99.90;;;;;;4973659;28;20081;-70
2021/12/22 11:23:56;;;;;;;17.55;11.70;;;-0.10;99.90;;;;;;4993867;28;20143;-70
2021/12/22 11:26:22;;;;;;;16.77;12.05;;;0.00;99.90;;;;;;4985711;28;20399;-70
2021/12/22 11:28:48;;;;;;;17.42;12.85;;;-0.10;99.90;;;;;;4990012;28;20121;-70
2021/12/22 11:31:14;;;;;;;16.33;11.82;;;-0.10;99.90;;;;;;4974154;28;20140;-70
2021/12/22 11:33:41;;;;;;;18.35;13.02;;;-0.10;99.90;;;;;;4992227;28;20057;-70
2021/12/22 11:36:09;;;;;;;17.92;12.35;;;-0.10;99.90;;;;;;4989614;28;20053;-70
2021/12/22 11:38:35;;;;;;;20.08;12.90;;;-0.10;99.90;;;;;;4988961;28;20046;-70
2021/12/22 11:41:16;;;;;;;18.25;12.07;;;-0.10;99.90;;;;;;4991533;28;20054;-70
2021/12/22 11:43:44;;;;;;;18.25;11.77;;;-0.10;99.90;;;;;;4989386;28;20100;-70
2021/12/22 11:46:11;;;;;;;16.50;12.43;;;-0.10;99.90;;;;;;4988543;28;20085;-70
2021/12/22 11:48:38;;;;;;;18.08;11.43;;;-0.20;99.90;;;;;;4982543;28;20144;-70
2021/12/22 11:51:25;;;;;;;19.50;12.82;;;-0.20;99.90;;;;;;4986911;28;20596;-70
2021/12/22 11:53:54;;;;;;;20.10;12.30;;;-0.20;99.90;;;;;;4995224;28;20133;-70
2021/12/22 11:56:42;;;;;;;16.85;12.10;;;-0.20;99.90;;;;;;4988561;28;20085;-70
2021/12/22 11:59:28;;;;;;;20.80;12.30;;;-0.20;99.90;;;;;;4983196;28;20064;-70
2021/12/22 12:02:19;;;;;;;18.73;12.93;;;-0.20;99.90;;;;;;5007090;28;20099;-70
2021/12/22 12:04:48;;;;;;;20.25;13.13;;;-0.10;99.90;;;;;;4990287;28;20120;-70
2021/12/22 12:07:41;;;;;;;17.63;12.05;;;-0.10;99.90;;;;;;4983402;28;20100;-70
2021/12/22 12:10:38;;;;;;;19.70;12.52;;;0.00;99.90;;;;;;4989047;28;20112;-69
2021/12/22 12:13:14;;;;;;;18.38;12.93;;;0.00;99.90;;;;;;4967610;28;20053;-69
2021/12/22 12:21:57;;;;;;;20.52;12.00;;;0.10;99.90;;;;;;4987321;28;20069;-69
2021/12/22 12:24:38;;;;;;;17.42;12.45;;;0.20;99.90;;;;;;4985399;28;20038;-69
2021/12/22 12:27:37;;;;;;;16.15;12.27;;;0.30;99.90;;;;;;4992019;28;20141;-69
2021/12/22 12:30:17;;;;;;;17.30;12.40;;;0.30;99.90;;;;;;4994679;28;20133;-68
2021/12/22 12:32:46;;;;;;;17.15;11.98;;;0.40;99.90;;;;;;4987231;28;20054;-68
2021/12/22 12:35:18;;;;;;;15.27;11.93;;;0.40;99.90;;;;;;4990636;28;20057;-69
2021/12/22 12:38:04;;;;;;;18.20;11.50;;;0.40;99.90;;;;;;4969458;28;20051;-68
2021/12/22 12:43:44;;;;;;;16.08;11.00;;;0.30;99.90;;;;;;4964010;28;20042;-69
2021/12/22 12:46:19;;;;;;;17.10;11.57;;;0.30;99.90;;;;;;4969428;28;20589;-68
2021/12/22 12:48:45;;;;;;;17.23;11.82;;;0.30;99.90;;;;;;4968585;28;20051;-68
2021/12/22 12:51:19;;;;;;;17.42;12.18;;;0.30;99.90;;;;;;4974584;28;20061;-68
2021/12/22 12:53:49;;;;;;;18.13;12.20;;;0.20;99.90;;;;;;4969872;28;20062;-68
2021/12/22 12:56:17;;;;;;;17.52;12.05;;;0.20;99.90;;;;;;4967011;28;20058;-68
2021/12/22 12:59:01;;;;;;;16.35;12.75;;;0.20;99.90;;;;;;4971137;28;20121;-68